createdAt,value
2023-04-09T00:01:23.144Z,18.70
2023-04-09T00:03:52.141Z,29.80
2023-04-09T00:06:21.261Z,25.20
2023-04-09T00:08:49.735Z,20.50
2023-04-09T00:11:22.892Z,23.60
2023-04-09T00:13:52.715Z,23.20
2023-04-09T00:16:21.102Z,26.60
2023-04-09T00:18:49.722Z,26.20
2023-04-09T00:21:18.444Z,36.10
2023-04-09T00:23:47.559Z,24.30
2023-04-09T00:26:16.314Z,26.20
2023-04-09T00:28:44.654Z,24.00
2023-04-09T00:31:13.559Z,22.60
2023-04-09T00:33:42.597Z,19.80
2023-04-09T00:36:13.078Z,18.50
2023-04-09T00:38:41.613Z,19.30
2023-04-09T00:41:11.026Z,25.10
2023-04-09T00:43:39.723Z,19.80
2023-04-09T00:46:08.241Z,42.20
2023-04-09T00:48:39.783Z,37.50
2023-04-09T00:51:08.456Z,28.90
2023-04-09T00:53:36.869Z,35.60
2023-04-09T00:56:06.492Z,29.20
2023-04-09T00:58:41.980Z,24.70
2023-04-09T01:01:12.011Z,35.50
2023-04-09T01:03:41.365Z,25.40
2023-04-09T01:06:21.954Z,20.50
2023-04-09T01:09:05.836Z,27.20
2023-04-09T01:11:43.187Z,27.50
2023-04-09T01:14:30.941Z,31.00
2023-04-09T01:17:06.256Z,19.80
2023-04-09T01:19:49.664Z,22.70
2023-04-09T01:22:46.064Z,19.50
2023-04-09T01:25:46.438Z,16.80
2023-04-09T01:28:32.637Z,24.50
2023-04-09T01:31:05.016Z,21.60
2023-04-09T01:33:34.440Z,23.00
2023-04-09T01:36:05.928Z,34.20
2023-04-09T01:38:43.443Z,30.90
2023-04-09T01:41:17.476Z,24.60
2023-04-09T01:43:46.730Z,26.70
2023-04-09T01:46:17.866Z,26.70
2023-04-09T01:48:47.343Z,20.40
2023-04-09T01:51:17.796Z,20.50
2023-04-09T01:53:46.204Z,22.20
2023-04-09T01:56:14.708Z,21.20
2023-04-09T01:58:44.686Z,20.60
2023-04-09T02:01:21.261Z,22.80
2023-04-09T02:04:04.343Z,18.90
2023-04-09T02:06:51.186Z,19.40
2023-04-09T02:09:21.583Z,22.50
2023-04-09T02:11:51.294Z,25.60
2023-04-09T02:14:27.820Z,24.30
2023-04-09T02:16:56.617Z,22.60
2023-04-09T02:19:24.904Z,21.80
2023-04-09T02:21:58.912Z,14.80
2023-04-09T02:24:27.617Z,13.40
2023-04-09T02:26:56.007Z,13.80
2023-04-09T02:29:24.408Z,18.60
2023-04-09T02:31:53.503Z,21.00
2023-04-09T02:34:28.609Z,21.40
2023-04-09T02:36:57.076Z,19.90
2023-04-09T02:39:25.410Z,21.50
2023-04-09T02:41:53.880Z,16.60
2023-04-09T02:44:23.109Z,12.80
2023-04-09T02:46:54.827Z,19.90
2023-04-09T02:49:23.954Z,16.80
2023-04-09T02:51:52.515Z,13.40
2023-04-09T02:54:21.211Z,15.80
2023-04-09T02:56:50.260Z,14.50
2023-04-09T02:59:18.648Z,14.10
2023-04-09T03:01:48.891Z,20.50
2023-04-09T03:04:17.675Z,20.10
2023-04-09T03:06:46.198Z,17.90
2023-04-09T03:09:15.054Z,20.00
2023-04-09T03:11:43.592Z,22.40
2023-04-09T03:14:11.935Z,21.80
2023-04-09T03:16:42.580Z,16.20
2023-04-09T03:19:11.432Z,15.10
2023-04-09T03:21:39.714Z,14.10
2023-04-09T03:24:08.302Z,13.60
2023-04-09T03:26:36.673Z,17.50
2023-04-09T03:29:11.228Z,12.60
2023-04-09T03:31:41.606Z,13.40
2023-04-09T03:34:10.005Z,15.70
2023-04-09T03:36:39.714Z,14.80
2023-04-09T03:39:32.997Z,13.50
2023-04-09T03:42:07.716Z,17.50
2023-04-09T03:44:44.364Z,17.10
2023-04-09T03:47:16.689Z,17.00
2023-04-09T03:49:46.585Z,15.90
2023-04-09T03:52:25.036Z,18.50
2023-04-09T03:54:59.481Z,13.70
2023-04-09T03:57:28.383Z,12.90
2023-04-09T03:59:56.621Z,18.20
2023-04-09T04:02:27.506Z,14.40
2023-04-09T04:05:01.998Z,17.70
2023-04-09T04:07:34.707Z,12.30
2023-04-09T04:10:10.129Z,13.40
2023-04-09T04:12:44.231Z,17.40
2023-04-09T04:15:20.379Z,13.50
2023-04-09T04:17:53.955Z,14.60
2023-04-09T04:21:04.214Z,11.90
2023-04-09T04:23:53.185Z,14.80
2023-04-09T04:26:28.651Z,21.00
2023-04-09T04:28:57.936Z,15.50
2023-04-09T04:31:35.997Z,14.10
2023-04-09T04:34:06.598Z,21.30
2023-04-09T04:36:37.015Z,18.50
2023-04-09T04:39:09.254Z,15.80
2023-04-09T04:41:51.403Z,32.90
2023-04-09T04:44:25.064Z,16.50
2023-04-09T04:46:59.280Z,17.50
2023-04-09T04:49:28.284Z,24.80
2023-04-09T04:51:57.810Z,22.10
2023-04-09T04:54:26.435Z,20.50
2023-04-09T04:56:57.636Z,16.60
2023-04-09T04:59:43.053Z,18.50
2023-04-09T05:02:13.320Z,16.70
2023-04-09T05:05:08.082Z,19.00
2023-04-09T05:07:40.627Z,17.50
2023-04-09T05:10:09.892Z,12.30
2023-04-09T05:12:43.828Z,13.80
2023-04-09T05:15:13.347Z,13.30
2023-04-09T05:17:44.589Z,18.00
2023-04-09T05:20:14.123Z,13.40
2023-04-09T05:22:51.280Z,23.00
2023-04-09T05:25:25.590Z,24.80
2023-04-09T05:27:56.198Z,22.80
2023-04-09T05:30:25.576Z,15.20
2023-04-09T05:32:57.974Z,18.90
2023-04-09T05:35:28.755Z,20.60
2023-04-09T05:37:57.671Z,12.40
2023-04-09T05:40:26.085Z,16.40
2023-04-09T05:42:55.625Z,17.90
2023-04-09T05:45:32.992Z,23.80
2023-04-09T05:48:02.988Z,15.60
2023-04-09T05:50:36.115Z,21.30
2023-04-09T05:55:44.320Z,20.20
2023-04-09T05:58:13.941Z,15.20
2023-04-09T06:00:42.583Z,18.70
2023-04-09T06:03:11.467Z,25.00
2023-04-09T06:05:39.830Z,23.20
2023-04-09T06:08:10.940Z,20.30
2023-04-09T06:10:41.041Z,18.40
2023-04-09T06:13:10.580Z,18.50
2023-04-09T06:15:40.736Z,17.30
2023-04-09T06:18:09.256Z,18.70
2023-04-09T06:20:37.734Z,19.90
2023-04-09T06:23:06.417Z,23.10
2023-04-09T06:25:38.470Z,20.90
2023-04-09T06:28:07.037Z,19.80
2023-04-09T06:30:37.580Z,11.60
2023-04-09T06:33:06.541Z,14.50
2023-04-09T06:35:35.060Z,22.10
2023-04-09T06:38:07.114Z,18.90
2023-04-09T06:40:39.353Z,17.10
2023-04-09T06:43:11.005Z,26.90
2023-04-09T06:45:50.064Z,27.80
2023-04-09T06:48:18.478Z,35.50
2023-04-09T06:50:48.697Z,16.90
2023-04-09T06:53:17.882Z,20.50
2023-04-09T06:55:46.575Z,14.00
2023-04-09T06:58:17.361Z,17.30
2023-04-09T07:00:45.887Z,20.80
2023-04-09T07:03:18.072Z,24.90
2023-04-09T07:05:46.913Z,14.80
2023-04-09T07:08:15.601Z,18.30
2023-04-09T07:10:52.926Z,26.70
2023-04-09T07:13:22.955Z,20.00
2023-04-09T07:15:51.227Z,15.70
2023-04-09T07:18:21.003Z,11.20
2023-04-09T07:20:50.182Z,17.60
2023-04-09T07:23:18.531Z,14.00
2023-04-09T07:25:48.592Z,32.80
2023-04-09T07:28:18.541Z,18.90
2023-04-09T07:30:47.328Z,17.10
2023-04-09T07:33:17.282Z,17.30
2023-04-09T07:35:47.128Z,17.30
2023-04-09T07:38:16.422Z,23.20
2023-04-09T07:40:44.850Z,18.20
2023-04-09T07:43:13.595Z,21.70
2023-04-09T07:45:41.871Z,12.40
2023-04-09T07:48:10.261Z,16.50
2023-04-09T07:50:38.943Z,15.00
2023-04-09T07:53:07.235Z,21.10
2023-04-09T07:55:35.714Z,22.20
2023-04-09T07:58:06.111Z,21.10
2023-04-09T08:00:42.117Z,18.30
2023-04-09T08:03:12.099Z,15.40
2023-04-09T08:05:40.694Z,25.50
2023-04-09T08:08:12.957Z,24.10
2023-04-09T08:10:41.457Z,17.90
2023-04-09T08:13:11.901Z,23.20
2023-04-09T08:15:40.386Z,28.60
2023-04-09T08:18:10.620Z,17.60
2023-04-09T08:20:45.401Z,23.80
2023-04-09T08:23:27.081Z,21.40
2023-04-09T08:25:56.521Z,42.80
2023-04-09T08:33:11.703Z,31.00
2023-04-09T08:35:41.595Z,26.50
2023-04-09T08:38:10.077Z,25.60
2023-04-09T08:40:38.757Z,45.90
2023-04-09T08:43:09.182Z,26.70
2023-04-09T08:45:41.700Z,23.90
2023-04-09T08:48:13.388Z,24.80
2023-04-09T08:50:42.337Z,29.30
2023-04-09T08:53:12.533Z,27.80
2023-04-09T08:55:45.125Z,29.20
2023-04-09T08:58:13.952Z,26.70
2023-04-09T09:00:43.261Z,19.80
2023-04-09T09:03:16.104Z,34.00
2023-04-09T09:05:46.694Z,26.10
2023-04-09T09:08:26.220Z,21.80
2023-04-09T09:10:54.578Z,26.10
2023-04-09T09:13:28.452Z,23.70
2023-04-09T09:16:14.522Z,25.00
2023-04-09T09:18:44.676Z,26.40
2023-04-09T09:21:18.253Z,40.60
2023-04-09T09:23:50.623Z,35.40
2023-04-09T09:26:23.201Z,35.60
2023-04-09T09:28:52.685Z,37.70
2023-04-09T09:31:22.824Z,37.90
2023-04-09T09:33:55.599Z,57.50
2023-04-09T09:36:35.833Z,30.30
2023-04-09T09:39:10.190Z,42.90
2023-04-09T09:41:47.546Z,38.80
2023-04-09T09:44:33.539Z,37.80
2023-04-09T09:47:04.135Z,38.30
2023-04-09T09:49:33.657Z,45.20
2023-04-09T09:52:07.062Z,51.30
2023-04-09T09:54:43.845Z,32.00
2023-04-09T09:57:15.623Z,38.40
2023-04-09T09:59:55.826Z,29.90
2023-04-09T10:02:27.219Z,46.50
2023-04-09T10:04:55.838Z,32.40
2023-04-09T10:07:26.871Z,25.80
2023-04-09T10:09:57.098Z,26.40
2023-04-09T10:12:26.322Z,20.50
2023-04-09T10:14:56.511Z,26.50
2023-04-09T10:17:26.689Z,23.90
2023-04-09T10:20:08.586Z,23.90
2023-04-09T10:22:37.959Z,23.00
2023-04-09T10:25:08.431Z,20.10
2023-04-09T10:27:38.345Z,29.80
2023-04-09T10:30:10.670Z,23.70
2023-04-09T10:32:51.025Z,21.00
2023-04-09T10:35:39.703Z,23.00
2023-04-09T10:38:09.873Z,18.10
2023-04-09T10:40:50.992Z,23.80
2023-04-09T10:43:21.232Z,18.30
2023-04-09T10:45:54.570Z,20.70
2023-04-09T10:48:26.254Z,31.10
2023-04-09T10:51:06.731Z,24.30
2023-04-09T10:53:39.319Z,22.20
2023-04-09T10:56:17.636Z,25.80
2023-04-09T10:58:52.133Z,20.80
2023-04-09T11:01:22.962Z,28.70
2023-04-09T11:04:21.286Z,17.30
2023-04-09T11:06:54.916Z,22.20
2023-04-09T11:09:24.633Z,24.10
2023-04-09T11:11:58.281Z,22.20
2023-04-09T11:14:28.360Z,18.40
2023-04-09T11:17:08.023Z,26.60
2023-04-09T11:19:41.499Z,21.50
2023-04-09T11:22:11.603Z,20.70
2023-04-09T11:24:46.762Z,21.80
2023-04-09T11:27:21.942Z,18.70
2023-04-09T11:29:58.241Z,19.70
2023-04-09T11:32:31.671Z,14.80
2023-04-09T11:35:01.477Z,22.20
2023-04-09T11:37:47.615Z,15.10
2023-04-09T11:40:26.606Z,19.20
2023-04-09T11:42:59.501Z,14.80
2023-04-09T11:45:30.036Z,15.60
2023-04-09T11:47:59.258Z,13.60
2023-04-09T11:50:28.060Z,21.80
2023-04-09T11:52:57.194Z,17.60
2023-04-09T11:55:31.380Z,19.40
2023-04-09T11:58:11.774Z,21.10
2023-04-09T12:00:45.568Z,19.80
2023-04-09T12:03:37.781Z,25.60
2023-04-09T12:06:09.458Z,14.70
2023-04-09T12:08:42.640Z,16.20
2023-04-09T12:11:16.388Z,17.00
2023-04-09T12:14:03.206Z,16.20
2023-04-09T12:16:34.761Z,21.40
2023-04-09T12:19:13.817Z,14.30
2023-04-09T12:22:02.092Z,21.60
2023-04-09T12:24:33.636Z,17.40
2023-04-09T12:27:14.123Z,17.80
2023-04-09T12:29:42.810Z,15.70
2023-04-09T12:32:17.417Z,13.40
2023-04-09T12:34:50.222Z,11.20
2023-04-09T12:37:19.586Z,17.70
2023-04-09T12:39:49.504Z,21.20
2023-04-09T12:42:18.905Z,18.10
2023-04-09T12:44:47.570Z,16.60
2023-04-09T12:47:16.784Z,12.60
2023-04-09T12:49:51.310Z,17.70
2023-04-09T12:52:19.956Z,16.20
2023-04-09T12:54:49.094Z,14.80
2023-04-09T12:57:18.534Z,20.50
2023-04-09T12:59:48.405Z,8.40
2023-04-09T13:02:19.040Z,11.50
2023-04-09T13:04:49.287Z,18.40
2023-04-09T13:07:29.338Z,13.40
2023-04-09T13:10:01.025Z,19.60
2023-04-09T13:12:30.418Z,13.20
2023-04-09T13:14:59.464Z,11.70
2023-04-09T13:17:28.154Z,19.60
2023-04-09T13:25:04.164Z,11.40
2023-04-09T13:27:34.853Z,10.10
2023-04-09T13:30:06.275Z,11.30
2023-04-09T13:32:43.976Z,10.10
2023-04-09T13:35:19.366Z,13.90
2023-04-09T13:37:47.678Z,13.40
2023-04-09T13:40:18.121Z,21.10
2023-04-09T13:42:54.080Z,8.20
2023-04-09T13:45:24.187Z,9.90
2023-04-09T13:47:55.422Z,18.00
2023-04-09T13:50:23.733Z,19.70
2023-04-09T13:52:52.037Z,23.50
2023-04-09T13:55:20.759Z,13.50
2023-04-09T13:57:48.997Z,11.70
2023-04-09T14:00:20.028Z,12.70
2023-04-09T14:02:52.651Z,11.20
2023-04-09T14:05:21.330Z,11.40
2023-04-09T14:07:50.010Z,11.40
2023-04-09T14:10:20.135Z,15.30
2023-04-09T14:12:48.948Z,8.10
2023-04-09T14:15:19.326Z,19.80
2023-04-09T14:17:47.699Z,16.20
2023-04-09T14:20:17.033Z,15.60
2023-04-09T14:22:49.308Z,35.10
2023-04-09T14:25:17.755Z,41.50
2023-04-09T14:27:46.417Z,15.00
2023-04-09T14:30:19.271Z,14.70
2023-04-09T14:33:07.438Z,9.00
2023-04-09T14:35:41.528Z,12.90
2023-04-09T14:38:14.419Z,11.60
2023-04-09T14:40:52.181Z,10.00
2023-04-09T14:43:22.447Z,21.20
2023-04-09T14:45:54.631Z,13.80
2023-04-09T14:48:23.547Z,15.00
2023-04-09T14:50:57.570Z,11.70
2023-04-09T14:53:45.717Z,10.90
2023-04-09T14:56:21.331Z,19.70
2023-04-09T14:58:49.767Z,18.90
2023-04-09T15:01:27.263Z,12.50
2023-04-09T15:04:15.960Z,10.40
2023-04-09T15:06:51.667Z,13.10
2023-04-09T15:09:21.156Z,14.90
2023-04-09T15:11:49.485Z,13.20
2023-04-09T15:14:31.457Z,14.70
2023-04-09T15:17:07.711Z,13.70
2023-04-09T15:19:38.237Z,16.20
2023-04-09T15:22:07.912Z,10.00
2023-04-09T15:24:48.039Z,11.50
2023-04-09T15:27:16.658Z,15.90
2023-04-09T15:29:49.601Z,10.80
2023-04-09T15:32:23.569Z,12.70
2023-04-09T15:34:57.101Z,11.30
2023-04-09T15:37:30.332Z,13.80
2023-04-09T15:39:58.703Z,18.00
2023-04-09T15:42:27.245Z,12.20
2023-04-09T15:45:04.181Z,9.10
2023-04-09T15:47:33.467Z,23.30
2023-04-09T15:50:10.254Z,13.60
2023-04-09T15:52:43.592Z,17.00
2023-04-09T15:55:14.078Z,27.20
2023-04-09T15:57:52.101Z,20.00
2023-04-09T16:00:25.300Z,31.40
2023-04-09T16:03:13.640Z,24.10
2023-04-09T16:05:42.110Z,26.80
2023-04-09T16:08:11.997Z,23.80
2023-04-09T16:10:46.859Z,20.70
2023-04-09T16:13:16.921Z,22.50
2023-04-09T16:15:49.563Z,20.10
2023-04-09T16:18:18.899Z,22.60
2023-04-09T16:20:57.544Z,21.90
2023-04-09T16:23:29.715Z,22.70
2023-04-09T16:26:03.354Z,28.70
2023-04-09T16:28:32.345Z,15.60
2023-04-09T16:31:04.962Z,19.60
2023-04-09T16:33:37.033Z,19.30
2023-04-09T16:36:06.938Z,16.50
2023-04-09T16:38:36.950Z,15.50
2023-04-09T16:41:05.768Z,17.70
2023-04-09T16:43:36.184Z,25.50
2023-04-09T16:46:08.575Z,19.50
2023-04-09T16:48:41.861Z,50.10
2023-04-09T16:51:13.197Z,45.70
2023-04-09T16:53:45.841Z,32.20
2023-04-09T16:56:21.143Z,28.70
2023-04-09T16:58:51.729Z,35.70
2023-04-09T17:01:21.257Z,24.90
2023-04-09T17:03:50.438Z,32.10
2023-04-09T17:06:21.394Z,28.80
2023-04-09T17:08:51.108Z,24.80
2023-04-09T17:11:24.477Z,31.10
2023-04-09T17:13:53.957Z,27.80
2023-04-09T17:16:25.216Z,23.00
2023-04-09T17:18:54.345Z,65.60
2023-04-09T17:21:27.716Z,101.90
2023-04-09T17:24:03.020Z,45.10
2023-04-09T17:26:34.451Z,24.60
2023-04-09T17:29:04.402Z,34.00
2023-04-09T17:31:32.755Z,38.10
2023-04-09T17:34:20.189Z,39.40
2023-04-09T17:36:56.904Z,56.00
2023-04-09T17:39:25.359Z,58.90
2023-04-09T17:41:56.600Z,77.10
2023-04-09T17:44:33.699Z,87.00
2023-04-09T17:47:07.613Z,58.80
2023-04-09T17:49:36.933Z,45.30
2023-04-09T17:52:08.120Z,26.30
2023-04-09T17:54:40.054Z,33.40
2023-04-09T17:57:08.873Z,46.30
2023-04-09T17:59:49.144Z,29.30
2023-04-09T18:02:17.950Z,31.30
2023-04-09T18:04:53.377Z,371.10
2023-04-09T18:07:22.176Z,59.50
2023-04-09T18:09:53.197Z,39.10
2023-04-09T18:12:22.044Z,38.20
2023-04-09T18:14:59.678Z,42.90
2023-04-09T18:17:32.511Z,29.60
2023-04-09T18:20:01.636Z,35.50
2023-04-09T18:22:31.340Z,34.40
2023-04-09T18:24:59.772Z,28.40
2023-04-09T18:27:29.621Z,23.90
2023-04-09T18:29:59.606Z,30.30
2023-04-09T18:32:39.948Z,25.70
2023-04-09T18:35:11.308Z,24.00
2023-04-09T18:37:42.954Z,28.60
2023-04-09T18:40:20.161Z,36.40
2023-04-09T18:42:54.931Z,31.50
2023-04-09T18:45:25.701Z,26.70
2023-04-09T18:48:01.713Z,31.00
2023-04-09T18:50:35.865Z,29.90
2023-04-09T18:53:10.127Z,34.00
2023-04-09T18:55:39.873Z,45.60
2023-04-09T18:58:12.837Z,44.60
2023-04-09T19:00:41.901Z,46.60
2023-04-09T19:03:10.403Z,48.70
2023-04-09T19:05:40.376Z,52.00
2023-04-09T19:08:09.873Z,50.90
2023-04-09T19:10:38.662Z,63.00
2023-04-09T19:13:07.897Z,52.30
2023-04-09T19:15:38.588Z,59.60
2023-04-09T19:18:07.000Z,68.20
2023-04-09T19:20:38.316Z,87.20
2023-04-09T19:23:06.927Z,85.20
2023-04-09T19:25:37.285Z,71.30
2023-04-09T19:28:07.170Z,85.20
2023-04-09T19:30:35.509Z,77.80
2023-04-09T19:33:09.777Z,85.50
2023-04-09T19:35:40.971Z,87.40
2023-04-09T19:38:16.166Z,83.10
2023-04-09T19:40:47.257Z,91.20
2023-04-09T19:43:16.587Z,77.50
2023-04-09T19:45:45.132Z,89.90
2023-04-09T19:48:14.061Z,83.20
2023-04-09T19:50:48.514Z,77.20
2023-04-09T19:53:18.766Z,86.60
2023-04-09T19:55:47.279Z,76.60
2023-04-09T19:58:15.589Z,79.40
2023-04-09T20:00:44.090Z,87.00
2023-04-09T20:03:16.542Z,85.00
2023-04-09T20:05:45.440Z,82.90
2023-04-09T20:08:15.924Z,88.40
2023-04-09T20:10:47.497Z,88.00
2023-04-09T20:15:47.107Z,93.10
2023-04-09T20:18:20.574Z,83.20
2023-04-09T20:20:52.169Z,89.10
2023-04-09T20:23:21.267Z,94.60
2023-04-09T20:25:56.391Z,86.50
2023-04-09T20:28:25.044Z,89.60
2023-04-09T20:30:53.611Z,84.40
2023-04-09T20:33:22.000Z,90.80
2023-04-09T20:35:50.631Z,85.80
2023-04-09T20:38:20.694Z,80.90
2023-04-09T20:40:52.754Z,75.80
2023-04-09T20:43:21.563Z,71.00
2023-04-09T20:45:59.963Z,76.50
2023-04-09T20:48:31.843Z,74.80
2023-04-09T20:51:02.474Z,71.40
2023-04-09T20:53:32.517Z,79.10
2023-04-09T20:56:02.229Z,75.40
2023-04-09T20:58:32.288Z,71.30
2023-04-09T21:01:09.921Z,73.60
2023-04-09T21:03:40.434Z,73.80
2023-04-09T21:06:09.513Z,83.30
2023-04-09T21:08:42.862Z,67.40
2023-04-09T21:11:12.310Z,71.60
2023-04-09T21:13:53.925Z,61.20
2023-04-09T21:16:26.315Z,69.50
2023-04-09T21:18:54.890Z,62.10
2023-04-09T21:21:37.470Z,60.10
2023-04-09T21:24:08.040Z,64.90
2023-04-09T21:26:49.215Z,58.40
2023-04-09T21:29:23.487Z,50.90
2023-04-09T21:31:52.069Z,63.10
2023-04-09T21:34:20.433Z,54.60
2023-04-09T21:36:48.744Z,52.10
2023-04-09T21:39:17.080Z,54.60
2023-04-09T21:41:48.426Z,41.50
2023-04-09T21:44:16.956Z,51.00
2023-04-09T21:46:45.375Z,57.80
2023-04-09T21:49:14.002Z,54.00
2023-04-09T21:51:45.551Z,52.80
2023-04-09T21:54:14.557Z,55.60
2023-04-09T21:56:43.108Z,55.50
2023-04-09T21:59:20.397Z,50.70
2023-04-09T22:01:50.182Z,54.00
2023-04-09T22:04:18.803Z,49.80
2023-04-09T22:06:48.615Z,49.20
2023-04-09T22:09:17.291Z,49.50
2023-04-09T22:11:45.577Z,43.70
2023-04-09T22:14:17.788Z,56.60
2023-04-09T22:16:46.993Z,51.80
2023-04-09T22:19:15.487Z,48.10
2023-04-09T22:21:44.390Z,48.00
2023-04-09T22:24:14.314Z,46.70
2023-04-09T22:26:46.764Z,72.90
2023-04-09T22:29:16.001Z,49.00
2023-04-09T22:31:44.534Z,47.40
2023-04-09T22:34:20.958Z,40.70
2023-04-09T22:36:53.581Z,38.60
2023-04-09T22:39:22.019Z,41.20
2023-04-09T22:41:50.268Z,37.10
2023-04-09T22:44:18.861Z,36.40
2023-04-09T22:46:49.102Z,48.20
2023-04-09T22:49:17.743Z,45.60
2023-04-09T22:51:46.621Z,33.70
2023-04-09T22:54:15.799Z,40.90
2023-04-09T22:56:44.933Z,38.30
2023-04-09T22:59:15.664Z,38.60
2023-04-09T23:01:44.072Z,36.80
2023-04-09T23:04:13.184Z,37.90
2023-04-09T23:06:42.021Z,38.00
2023-04-09T23:09:11.190Z,42.60
2023-04-09T23:11:48.298Z,35.80
2023-04-09T23:14:17.902Z,42.80
2023-04-09T23:16:46.223Z,39.40
2023-04-09T23:19:23.117Z,37.30
2023-04-09T23:21:52.243Z,56.60
2023-04-09T23:24:20.505Z,48.10
2023-04-09T23:26:50.133Z,44.20
2023-04-09T23:29:18.402Z,40.90
2023-04-09T23:31:48.988Z,42.80
2023-04-09T23:34:17.600Z,52.70
2023-04-09T23:36:46.066Z,38.40
2023-04-09T23:39:16.602Z,46.30
2023-04-09T23:41:46.433Z,45.20
2023-04-09T23:44:19.822Z,57.30
2023-04-09T23:46:48.701Z,53.30
2023-04-09T23:49:17.272Z,53.00
2023-04-09T23:51:53.820Z,44.60
2023-04-09T23:54:22.391Z,42.20
2023-04-09T23:57:04.623Z,44.30
2023-04-09T23:59:36.117Z,45.20
